createdAt,value
2018-05-11T00:00:42.244Z,32.7
2018-05-11T00:01:43.221Z,31.9
2018-05-11T00:02:44.199Z,34.1
2018-05-11T00:03:44.917Z,33.0
2018-05-11T00:04:45.899Z,33.9
2018-05-11T00:05:46.621Z,34.1
2018-05-11T00:06:47.342Z,33.5
2018-05-11T00:07:48.078Z,34.1
2018-05-11T00:08:48.851Z,34.7
2018-05-11T00:09:49.580Z,33.5
2018-05-11T00:10:50.310Z,33.9
2018-05-11T00:11:51.186Z,34.2
2018-05-11T00:12:51.895Z,34.2
2018-05-11T00:13:52.642Z,33.2
2018-05-11T00:14:53.363Z,33.9
2018-05-11T00:15:54.116Z,32.5
2018-05-11T00:16:54.883Z,31.8
2018-05-11T00:17:55.605Z,31.9
2018-05-11T00:18:56.323Z,32.2
2018-05-11T00:19:57.059Z,31.7
2018-05-11T00:20:57.790Z,30.9
2018-05-11T00:21:58.513Z,31.1
2018-05-11T00:22:59.234Z,30.9
2018-05-11T00:23:59.950Z,29.2
2018-05-11T00:25:00.691Z,30.8
2018-05-11T00:26:01.406Z,30.3
2018-05-11T00:27:02.384Z,29.6
2018-05-11T00:28:03.107Z,28.6
2018-05-11T00:29:03.830Z,28.4
2018-05-11T00:30:04.561Z,25.4
2018-05-11T00:31:05.629Z,25.0
2018-05-11T00:32:06.352Z,24.0
2018-05-11T00:33:07.113Z,23.2
2018-05-11T00:34:07.832Z,22.7
2018-05-11T00:35:08.562Z,22.2
2018-05-11T00:36:09.283Z,21.5
2018-05-11T00:37:10.524Z,21.7
2018-05-11T00:38:11.283Z,20.4
2018-05-11T00:39:11.994Z,20.1
2018-05-11T00:40:12.724Z,21.5
2018-05-11T00:41:13.459Z,20.3
2018-05-11T00:42:14.194Z,20.2
2018-05-11T00:43:14.915Z,20.3
2018-05-11T00:44:15.886Z,19.6
2018-05-11T00:45:16.621Z,20.2
2018-05-11T00:46:17.350Z,18.9
2018-05-11T00:47:18.476Z,18.9
2018-05-11T00:48:19.210Z,19.1
2018-05-11T00:49:19.928Z,19.0
2018-05-11T00:50:20.681Z,17.8
2018-05-11T00:51:21.399Z,17.7
2018-05-11T00:52:22.124Z,19.3
2018-05-11T00:53:23.099Z,18.7
2018-05-11T00:54:23.929Z,17.3
2018-05-11T00:55:24.656Z,18.9
2018-05-11T00:56:25.380Z,18.2
2018-05-11T00:57:26.354Z,17.1
2018-05-11T00:58:27.338Z,18.9
2018-05-11T00:59:28.053Z,16.8
2018-05-11T01:00:28.771Z,17.7
2018-05-11T01:01:29.497Z,17.9
2018-05-11T01:02:30.221Z,17.3
2018-05-11T01:03:30.943Z,18.3
2018-05-11T01:04:31.683Z,18.6
2018-05-11T01:05:32.432Z,17.8
2018-05-11T01:06:33.297Z,18.0
2018-05-11T01:07:34.062Z,18.7
2018-05-11T01:08:34.768Z,18.0
2018-05-11T01:09:35.489Z,18.8
2018-05-11T01:10:36.210Z,17.6
2018-05-11T01:11:37.547Z,19.3
2018-05-11T01:12:38.257Z,19.3
2018-05-11T01:13:38.984Z,18.5
2018-05-11T01:14:39.707Z,19.3
2018-05-11T01:15:40.429Z,19.6
2018-05-11T01:16:41.151Z,19.1
2018-05-11T01:17:41.893Z,18.6
2018-05-11T01:18:42.619Z,18.9
2018-05-11T01:19:43.340Z,19.0
2018-05-11T01:20:44.065Z,18.9
2018-05-11T01:21:44.799Z,19.7
2018-05-11T01:22:45.524Z,19.2
2018-05-11T01:23:46.253Z,18.5
2018-05-11T01:24:46.967Z,19.7
2018-05-11T01:25:47.683Z,19.0
2018-05-11T01:26:48.672Z,18.6
2018-05-11T01:27:49.396Z,18.7
2018-05-11T01:28:50.113Z,19.4
2018-05-11T01:29:50.849Z,18.4
2018-05-11T01:30:51.694Z,17.8
2018-05-11T01:31:52.414Z,17.1
2018-05-11T01:32:53.135Z,18.6
2018-05-11T01:33:54.098Z,19.0
2018-05-11T01:34:54.821Z,17.5
2018-05-11T01:35:55.848Z,17.9
2018-05-11T01:36:56.571Z,18.2
2018-05-11T01:37:57.288Z,18.7
2018-05-11T01:38:58.416Z,19.3
2018-05-11T01:39:59.427Z,17.4
2018-05-11T01:41:00.189Z,17.9
2018-05-11T01:42:00.922Z,17.8
2018-05-11T01:43:01.638Z,18.0
2018-05-11T01:44:02.370Z,15.8
2018-05-11T01:45:03.106Z,17.4
2018-05-11T01:46:03.833Z,17.0
2018-05-11T01:47:04.572Z,18.2
2018-05-11T01:48:05.561Z,16.8
2018-05-11T01:49:06.317Z,16.8
2018-05-11T01:50:07.760Z,16.8
2018-05-11T01:51:08.609Z,17.3
2018-05-11T01:52:09.328Z,17.4
2018-05-11T01:53:10.069Z,16.1
2018-05-11T01:54:10.791Z,16.6
2018-05-11T01:55:11.519Z,17.8
2018-05-11T01:56:12.239Z,16.1
2018-05-11T01:57:12.963Z,17.2
2018-05-11T01:58:13.693Z,17.4
2018-05-11T01:59:14.413Z,17.2
2018-05-11T02:00:15.132Z,16.7
2018-05-11T02:01:15.911Z,17.4
2018-05-11T02:02:16.637Z,17.6
2018-05-11T02:03:17.616Z,17.0
2018-05-11T02:04:18.979Z,17.0
2018-05-11T02:05:19.686Z,17.7
2018-05-11T02:06:20.406Z,17.2
2018-05-11T02:07:21.376Z,17.1
2018-05-11T02:08:22.100Z,18.1
2018-05-11T02:09:22.811Z,16.8
2018-05-11T02:10:23.535Z,17.8
2018-05-11T02:11:24.260Z,17.4
2018-05-11T02:12:24.994Z,17.6
2018-05-11T02:13:25.999Z,17.5
2018-05-11T02:14:26.713Z,18.6
2018-05-11T02:15:27.583Z,17.5
2018-05-11T02:16:28.302Z,18.0
2018-05-11T02:17:29.031Z,18.4
2018-05-11T02:18:29.764Z,18.7
2018-05-11T02:19:30.477Z,19.6
2018-05-11T02:20:31.489Z,18.6
2018-05-11T02:21:32.218Z,18.9
2018-05-11T02:22:32.938Z,18.1
2018-05-11T02:23:33.662Z,19.4
2018-05-11T02:24:34.382Z,20.2
2018-05-11T02:25:35.118Z,19.7
2018-05-11T02:26:35.853Z,20.7
2018-05-11T02:27:36.673Z,20.9
2018-05-11T02:28:37.396Z,20.7
2018-05-11T02:29:38.127Z,20.3
2018-05-11T02:30:38.841Z,19.8
2018-05-11T02:31:39.575Z,20.0
2018-05-11T02:32:40.542Z,19.4
2018-05-11T02:33:41.265Z,20.1
2018-05-11T02:34:41.978Z,19.9
2018-05-11T02:35:42.700Z,20.4
2018-05-11T02:36:43.423Z,20.0
2018-05-11T02:37:44.505Z,18.3
2018-05-11T02:38:45.228Z,19.3
2018-05-11T02:39:45.936Z,19.6
2018-05-11T02:40:46.668Z,19.4
2018-05-11T02:41:47.382Z,19.1
2018-05-11T02:42:48.216Z,19.8
2018-05-11T02:43:48.941Z,19.8
2018-05-11T02:44:49.915Z,18.8
2018-05-11T02:45:50.903Z,20.3
2018-05-11T02:46:51.618Z,19.3
2018-05-11T02:47:52.343Z,20.0
2018-05-11T02:48:53.124Z,19.8
2018-05-11T02:49:53.855Z,19.7
2018-05-11T02:50:54.589Z,20.4
2018-05-11T02:51:55.294Z,19.9
2018-05-11T02:52:56.039Z,20.3
2018-05-11T02:53:56.969Z,20.1
2018-05-11T02:54:57.688Z,20.1
2018-05-11T02:55:58.416Z,21.3
2018-05-11T02:56:59.153Z,20.1
2018-05-11T02:57:59.868Z,21.1
2018-05-11T02:59:00.588Z,21.0
2018-05-11T03:00:01.305Z,21.6
2018-05-11T03:01:02.032Z,20.2
2018-05-11T03:02:02.757Z,21.0
2018-05-11T03:03:03.485Z,20.6
2018-05-11T03:04:04.201Z,20.5
2018-05-11T03:05:04.916Z,21.5
2018-05-11T03:06:05.892Z,20.8
2018-05-11T03:07:06.612Z,20.8
2018-05-11T03:08:07.381Z,19.7
2018-05-11T03:09:08.087Z,21.5
2018-05-11T03:10:08.849Z,22.0
2018-05-11T03:11:09.568Z,20.1
2018-05-11T03:12:10.285Z,22.0
2018-05-11T03:13:11.008Z,21.0
2018-05-11T03:14:11.730Z,20.6
2018-05-11T03:15:12.508Z,20.9
2018-05-11T03:16:13.226Z,20.3
2018-05-11T03:17:13.949Z,19.8
2018-05-11T03:18:14.688Z,20.7
2018-05-11T03:19:15.410Z,19.9
2018-05-11T03:20:16.483Z,20.8
2018-05-11T03:21:17.206Z,21.2
2018-05-11T03:22:17.930Z,21.5
2018-05-11T03:23:18.895Z,20.1
2018-05-11T03:24:19.865Z,22.1
2018-05-11T03:25:20.586Z,19.3
2018-05-11T03:26:21.311Z,20.9
2018-05-11T03:27:22.036Z,20.5
2018-05-11T03:28:22.770Z,20.4
2018-05-11T03:29:23.491Z,20.3
2018-05-11T03:30:24.204Z,20.3
2018-05-11T03:31:24.931Z,21.2
2018-05-11T03:32:25.658Z,21.0
2018-05-11T03:33:26.391Z,19.6
2018-05-11T03:34:27.123Z,20.1
2018-05-11T03:35:27.837Z,18.9
2018-05-11T03:36:28.583Z,19.7
2018-05-11T03:37:29.300Z,19.2
2018-05-11T03:38:30.010Z,18.9
2018-05-11T03:39:30.733Z,20.2
2018-05-11T03:40:31.465Z,20.1
2018-05-11T03:41:32.185Z,19.4
2018-05-11T03:42:32.913Z,20.0
2018-05-11T03:43:33.635Z,19.0
2018-05-11T03:44:34.365Z,20.5
2018-05-11T03:45:35.148Z,19.6
2018-05-11T03:46:35.872Z,19.8
2018-05-11T03:47:36.852Z,19.8
2018-05-11T03:48:37.586Z,21.3
2018-05-11T03:49:38.303Z,20.9
2018-05-11T03:50:39.074Z,20.5
2018-05-11T03:51:39.786Z,21.1
2018-05-11T03:52:40.519Z,21.4
2018-05-11T03:53:41.250Z,20.2
2018-05-11T03:54:41.975Z,19.8
2018-05-11T03:55:42.745Z,21.4
2018-05-11T03:56:43.478Z,20.0
2018-05-11T03:57:44.219Z,20.3
2018-05-11T03:58:44.941Z,20.2
2018-05-11T03:59:45.923Z,21.4
2018-05-11T04:00:47.112Z,21.8
2018-05-11T04:01:47.849Z,21.9
2018-05-11T04:02:48.574Z,22.8
2018-05-11T04:03:49.305Z,21.1
2018-05-11T04:04:50.025Z,23.0
2018-05-11T04:05:50.745Z,22.8
2018-05-11T04:06:51.810Z,23.1
2018-05-11T04:07:52.557Z,22.5
2018-05-11T04:08:53.285Z,24.3
2018-05-11T04:09:54.002Z,23.8
2018-05-11T04:10:54.721Z,23.0
2018-05-11T04:11:55.444Z,23.2
2018-05-11T04:12:56.275Z,22.9
2018-05-11T04:13:57.000Z,24.9
2018-05-11T04:14:57.985Z,23.4
2018-05-11T04:15:58.708Z,24.0
2018-05-11T04:16:59.428Z,23.1
2018-05-11T04:18:00.151Z,23.3
2018-05-11T04:19:00.871Z,23.2
2018-05-11T04:20:01.609Z,23.9
2018-05-11T04:21:02.341Z,23.3
2018-05-11T04:22:03.321Z,23.3
2018-05-11T04:23:04.093Z,24.7
2018-05-11T04:24:04.819Z,22.4
2018-05-11T04:25:05.533Z,23.1
2018-05-11T04:26:06.267Z,23.3
2018-05-11T04:27:07.002Z,23.4
2018-05-11T04:28:07.867Z,21.8
2018-05-11T04:29:08.600Z,23.0
2018-05-11T04:30:09.364Z,22.5
2018-05-11T04:31:10.298Z,23.6
2018-05-11T04:32:11.002Z,21.9
2018-05-11T04:33:11.772Z,22.5
2018-05-11T04:34:12.499Z,23.7
2018-05-11T04:35:13.232Z,23.4
2018-05-11T04:36:13.951Z,22.1
2018-05-11T04:37:14.696Z,23.2
2018-05-11T04:38:15.443Z,22.5
2018-05-11T04:39:16.193Z,21.3
2018-05-11T04:40:16.916Z,21.3
2018-05-11T04:41:17.686Z,22.2
2018-05-11T04:42:18.412Z,20.8
2018-05-11T04:43:19.250Z,22.2
2018-05-11T04:44:20.221Z,21.3
2018-05-11T04:45:21.045Z,21.3
2018-05-11T04:46:21.695Z,22.4
2018-05-11T04:47:22.408Z,22.1
2018-05-11T04:48:23.484Z,21.4
2018-05-11T04:49:24.206Z,22.1
2018-05-11T04:50:24.938Z,21.2
2018-05-11T04:51:25.908Z,20.8
2018-05-11T04:52:26.641Z,22.0
2018-05-11T04:53:27.353Z,20.2
2018-05-11T04:54:28.079Z,22.0
2018-05-11T04:55:28.804Z,20.6
2018-05-11T04:56:29.769Z,19.8
2018-05-11T04:57:30.847Z,21.7
2018-05-11T04:58:31.578Z,21.7
2018-05-11T04:59:32.300Z,20.6
2018-05-11T05:00:33.025Z,21.6
2018-05-11T05:01:33.747Z,22.3
2018-05-11T05:02:34.614Z,22.0
2018-05-11T05:03:35.341Z,21.6
2018-05-11T05:04:36.317Z,21.7
2018-05-11T05:05:37.053Z,20.8
2018-05-11T05:06:37.774Z,21.3
2018-05-11T05:07:38.561Z,20.9
2018-05-11T05:08:39.278Z,21.9
2018-05-11T05:09:40.003Z,20.8
2018-05-11T05:10:40.721Z,21.1
2018-05-11T05:11:41.443Z,21.1
2018-05-11T05:12:42.223Z,20.0
2018-05-11T05:13:42.956Z,18.9
2018-05-11T05:14:43.673Z,20.0
2018-05-11T05:15:44.405Z,18.8
2018-05-11T05:16:45.382Z,19.9
2018-05-11T05:17:46.132Z,20.2
2018-05-11T05:18:46.855Z,21.8
2018-05-11T05:19:47.595Z,20.4
2018-05-11T05:20:48.563Z,21.0
2018-05-11T05:21:49.285Z,22.1
2018-05-11T05:22:50.015Z,21.1
2018-05-11T05:23:50.729Z,21.2
2018-05-11T05:24:51.467Z,22.2
2018-05-11T05:25:52.283Z,21.4
2018-05-11T05:26:53.027Z,21.5
2018-05-11T05:27:53.745Z,22.9
2018-05-11T05:28:54.460Z,22.6
2018-05-11T05:29:55.196Z,21.8
2018-05-11T05:30:55.926Z,21.7
2018-05-11T05:31:56.660Z,22.4
2018-05-11T05:32:57.382Z,22.4
2018-05-11T05:33:58.119Z,24.1
2018-05-11T05:34:58.860Z,23.8
2018-05-11T05:35:59.574Z,24.5
2018-05-11T05:37:00.549Z,22.3
2018-05-11T05:38:01.282Z,24.0
2018-05-11T05:39:02.022Z,24.2
2018-05-11T05:40:02.751Z,23.0
2018-05-11T05:41:03.484Z,23.3
2018-05-11T05:42:04.213Z,23.7
2018-05-11T05:43:04.936Z,23.3
2018-05-11T05:44:05.912Z,24.1
2018-05-11T05:45:06.648Z,23.2
2018-05-11T05:46:07.375Z,25.6
2018-05-11T05:47:08.211Z,24.2
2018-05-11T05:48:08.946Z,24.9
2018-05-11T05:49:09.679Z,24.7
2018-05-11T05:50:10.410Z,25.9
2018-05-11T05:51:11.159Z,23.7
2018-05-11T05:52:11.946Z,24.4
2018-05-11T05:53:12.683Z,24.9
2018-05-11T05:54:13.412Z,23.9
2018-05-11T05:55:14.153Z,25.3
2018-05-11T05:56:14.876Z,23.5
2018-05-11T05:57:15.851Z,23.2
2018-05-11T05:58:16.576Z,23.7
2018-05-11T05:59:17.300Z,23.5
2018-05-11T06:00:18.032Z,22.6
2018-05-11T06:01:18.810Z,22.8
2018-05-11T06:02:19.548Z,22.5
2018-05-11T06:03:20.276Z,24.4
2018-05-11T06:04:21.006Z,23.4
2018-05-11T06:05:21.741Z,23.2
2018-05-11T06:06:22.563Z,22.7
2018-05-11T06:07:23.291Z,22.5
2018-05-11T06:08:24.018Z,23.4
2018-05-11T06:09:24.743Z,24.3
2018-05-11T06:10:25.465Z,22.1
2018-05-11T06:11:26.547Z,23.2
2018-05-11T06:12:27.269Z,22.9
2018-05-11T06:13:28.259Z,23.0
2018-05-11T06:14:28.982Z,23.0
2018-05-11T06:15:29.705Z,23.1
2018-05-11T06:16:30.535Z,22.6
2018-05-11T06:17:31.254Z,22.7
2018-05-11T06:18:31.980Z,23.3
2018-05-11T06:19:32.700Z,23.0
2018-05-11T06:20:33.418Z,22.5
2018-05-11T06:21:34.184Z,23.0
2018-05-11T06:22:34.920Z,24.5
2018-05-11T06:23:35.636Z,25.1
2018-05-11T06:24:36.360Z,23.8
2018-05-11T06:25:37.340Z,23.5
2018-05-11T06:26:38.411Z,22.6
2018-05-11T06:27:39.145Z,24.6
2018-05-11T06:28:40.115Z,23.8
2018-05-11T06:29:40.878Z,22.4
2018-05-11T06:30:41.604Z,24.0
2018-05-11T06:31:42.339Z,23.5
2018-05-11T06:32:43.417Z,24.0
2018-05-11T06:33:44.153Z,22.0
2018-05-11T06:34:44.871Z,23.5
2018-05-11T06:35:45.846Z,22.5
2018-05-11T06:36:46.589Z,21.9
2018-05-11T06:37:47.364Z,21.1
2018-05-11T06:38:48.381Z,21.6
2018-05-11T06:39:49.127Z,21.3
2018-05-11T06:40:49.837Z,21.2
2018-05-11T06:41:50.579Z,20.6
2018-05-11T06:42:51.651Z,20.7
2018-05-11T06:43:52.382Z,19.6
2018-05-11T06:44:53.370Z,20.4
2018-05-11T06:45:54.430Z,19.2
2018-05-11T06:46:55.073Z,20.9
2018-05-11T06:47:55.903Z,19.4
2018-05-11T06:48:56.875Z,19.7
2018-05-11T06:49:57.862Z,20.2
2018-05-11T06:50:58.586Z,20.0
2018-05-11T06:51:59.318Z,20.5
2018-05-11T06:53:00.152Z,21.3
2018-05-11T06:54:00.879Z,18.9
2018-05-11T06:55:01.862Z,18.6
2018-05-11T06:56:02.595Z,17.1
2018-05-11T06:57:03.324Z,18.3
2018-05-11T06:58:04.204Z,19.1
2018-05-11T06:59:04.933Z,18.0
2018-05-11T07:00:05.660Z,18.9
2018-05-11T07:01:06.393Z,17.8
2018-05-11T07:02:07.119Z,18.3
2018-05-11T07:03:07.836Z,17.7
2018-05-11T07:04:08.572Z,17.1
2018-05-11T07:05:09.441Z,18.1
2018-05-11T07:06:10.184Z,17.4
2018-05-11T07:07:10.930Z,18.0
2018-05-11T07:08:11.954Z,19.0
2018-05-11T07:09:12.961Z,18.2
2018-05-11T07:10:13.728Z,17.5
2018-05-11T07:11:14.495Z,17.3
2018-05-11T07:12:15.228Z,17.1
2018-05-11T07:13:15.951Z,16.6
2018-05-11T07:14:17.036Z,16.9
2018-05-11T07:15:17.900Z,17.0
2018-05-11T07:16:18.739Z,16.6
2018-05-11T07:17:19.809Z,16.6
2018-05-11T07:18:20.537Z,16.8
2018-05-11T07:19:21.263Z,17.3
2018-05-11T07:20:21.978Z,16.6
2018-05-11T07:21:22.961Z,15.9
2018-05-11T07:22:23.699Z,15.9
2018-05-11T07:23:24.425Z,16.1
2018-05-11T07:24:25.154Z,15.8
2018-05-11T07:25:25.981Z,15.5
2018-05-11T07:26:26.707Z,17.2
2018-05-11T07:27:27.428Z,16.4
2018-05-11T07:28:28.405Z,16.8
2018-05-11T07:29:29.145Z,17.0
2018-05-11T07:30:29.874Z,17.7
2018-05-11T07:31:31.041Z,16.1
2018-05-11T07:32:32.231Z,15.9
2018-05-11T07:33:32.971Z,15.6
2018-05-11T07:34:33.704Z,15.1
2018-05-11T07:35:34.434Z,13.9
2018-05-11T07:36:35.535Z,14.7
2018-05-11T07:37:36.297Z,13.6
2018-05-11T07:38:37.131Z,13.9
2018-05-11T07:39:38.282Z,13.1
2018-05-11T07:40:39.539Z,13.4
2018-05-11T07:41:41.976Z,12.5
2018-05-11T07:42:42.800Z,11.8
2018-05-11T07:43:43.763Z,11.0
2018-05-11T07:44:44.483Z,11.6
2018-05-11T07:45:45.209Z,11.7
2018-05-11T07:46:45.948Z,10.3
2018-05-11T07:47:46.672Z,10.2
2018-05-11T07:48:47.410Z,10.8
2018-05-11T07:49:48.147Z,10.4
2018-05-11T07:50:49.024Z,11.0
2018-05-11T07:51:49.785Z,10.7
2018-05-11T07:52:50.510Z,11.0
2018-05-11T07:53:51.242Z,11.5
2018-05-11T07:54:51.977Z,10.5
2018-05-11T07:55:52.705Z,9.8
2018-05-11T07:56:53.687Z,10.9
2018-05-11T07:57:54.442Z,10.4
2018-05-11T07:58:55.166Z,8.9
2018-05-11T07:59:55.895Z,8.7
2018-05-11T08:00:56.881Z,8.7
2018-05-11T08:01:57.623Z,8.8
2018-05-11T08:02:58.705Z,8.9
2018-05-11T08:03:59.503Z,8.7
2018-05-11T08:05:00.184Z,8.5
2018-05-11T08:06:00.920Z,8.6
2018-05-11T08:07:01.649Z,7.8
2018-05-11T08:08:02.376Z,9.0
2018-05-11T08:09:03.639Z,8.9
2018-05-11T08:10:04.357Z,8.5
2018-05-11T08:11:05.336Z,9.0
2018-05-11T08:12:06.079Z,8.9
2018-05-11T08:13:06.855Z,8.1
2018-05-11T08:14:07.624Z,8.5
2018-05-11T08:15:08.343Z,9.3
2018-05-11T08:16:09.331Z,9.4
2018-05-11T08:17:10.064Z,9.7
2018-05-11T08:18:10.786Z,9.4
2018-05-11T08:19:12.215Z,9.4
2018-05-11T08:20:13.282Z,8.5
2018-05-11T08:21:14.076Z,8.5
2018-05-11T08:22:14.782Z,8.1
2018-05-11T08:23:15.527Z,8.0
2018-05-11T08:24:16.248Z,8.3
2018-05-11T08:25:17.074Z,9.5
2018-05-11T08:26:18.923Z,10.8
2018-05-11T08:27:21.520Z,10.0
2018-05-11T08:28:23.676Z,9.7
2018-05-11T08:29:25.618Z,10.6
2018-05-11T08:30:27.806Z,10.9
2018-05-11T08:31:29.530Z,10.4
2018-05-11T08:32:32.538Z,11.7
2018-05-11T08:33:34.873Z,11.8
2018-05-11T08:34:36.939Z,11.7
2018-05-11T08:35:38.692Z,13.9
2018-05-11T08:36:40.493Z,12.6
2018-05-11T08:37:43.445Z,11.8
2018-05-11T08:38:45.108Z,11.8
2018-05-11T08:39:47.529Z,12.5
2018-05-11T08:40:49.748Z,12.2
2018-05-11T08:41:51.920Z,11.9
2018-05-11T08:42:54.547Z,11.4
2018-05-11T08:43:57.012Z,10.5
2018-05-11T08:44:58.967Z,10.1
2018-05-11T08:46:01.120Z,11.0
2018-05-11T08:47:03.484Z,10.1
2018-05-11T08:48:04.575Z,10.2
2018-05-11T08:49:07.007Z,10.7
2018-05-11T08:50:07.913Z,10.5
2018-05-11T08:51:08.659Z,10.6
2018-05-11T08:52:09.384Z,9.8
2018-05-11T08:53:10.113Z,10.3
2018-05-11T08:54:10.839Z,9.9
2018-05-11T08:55:11.566Z,9.3
2018-05-11T08:56:12.299Z,9.7
2018-05-11T08:57:13.339Z,9.1
2018-05-11T08:58:14.040Z,10.0
2018-05-11T08:59:15.016Z,9.6
2018-05-11T09:00:15.748Z,9.0
2018-05-11T09:01:16.500Z,9.2
2018-05-11T09:02:17.241Z,9.6
2018-05-11T09:03:17.969Z,10.4
2018-05-11T09:04:18.700Z,10.7
2018-05-11T09:05:19.450Z,11.1
2018-05-11T09:06:20.193Z,10.9
2018-05-11T09:07:21.079Z,12.3
2018-05-11T09:08:21.880Z,11.3
2018-05-11T09:09:22.554Z,11.3
2018-05-11T09:10:23.299Z,11.7
2018-05-11T09:11:24.289Z,11.6
2018-05-11T09:12:25.032Z,11.6
2018-05-11T09:13:26.044Z,11.9
2018-05-11T09:14:26.774Z,11.7
2018-05-11T09:15:27.501Z,11.4
2018-05-11T09:16:28.517Z,11.7
2018-05-11T09:17:29.595Z,10.8
2018-05-11T09:18:30.336Z,12.3
2018-05-11T09:19:31.319Z,11.8
2018-05-11T09:20:32.055Z,12.1
2018-05-11T09:21:32.790Z,11.6
2018-05-11T09:22:35.033Z,12.7
2018-05-11T09:23:36.015Z,11.1
2018-05-11T09:24:36.771Z,12.6
2018-05-11T09:25:37.496Z,12.0
2018-05-11T09:26:38.239Z,12.7
2018-05-11T09:27:38.966Z,12.2
2018-05-11T09:28:39.957Z,12.4
2018-05-11T09:29:40.735Z,12.5
2018-05-11T09:30:41.459Z,11.4
2018-05-11T09:31:43.449Z,11.6
2018-05-11T09:32:44.309Z,12.7
2018-05-11T09:33:45.068Z,12.4
2018-05-11T09:34:45.844Z,12.7
2018-05-11T09:35:46.582Z,11.7
2018-05-11T09:36:47.317Z,12.3
2018-05-11T09:37:48.047Z,11.5
2018-05-11T09:38:48.780Z,12.2
2018-05-11T09:39:50.066Z,12.6
2018-05-11T09:40:50.690Z,12.9
2018-05-11T09:41:51.420Z,12.6
2018-05-11T09:42:52.150Z,12.0
2018-05-11T09:43:52.890Z,11.8
2018-05-11T09:44:53.624Z,13.3
2018-05-11T09:45:54.368Z,11.7
2018-05-11T09:46:55.111Z,12.8
2018-05-11T09:47:55.834Z,13.4
2018-05-11T09:48:56.578Z,11.9
2018-05-11T09:49:57.317Z,13.9
2018-05-11T09:50:58.445Z,13.4
2018-05-11T09:51:59.194Z,13.4
2018-05-11T09:52:59.919Z,14.3
2018-05-11T09:54:00.904Z,12.1
2018-05-11T09:55:01.733Z,14.5
2018-05-11T09:56:02.370Z,12.4
2018-05-11T09:57:03.554Z,12.8
2018-05-11T09:58:04.295Z,12.1
2018-05-11T09:59:05.032Z,13.8
2018-05-11T10:00:05.757Z,13.2
2018-05-11T10:01:06.498Z,13.2
2018-05-11T10:02:07.382Z,13.6
2018-05-11T10:03:08.114Z,14.3
2018-05-11T10:04:08.901Z,13.6
2018-05-11T10:05:09.622Z,14.3
2018-05-11T10:06:10.362Z,14.3
2018-05-11T10:07:11.100Z,15.4
2018-05-11T10:08:11.874Z,15.3
2018-05-11T10:09:12.604Z,15.0
2018-05-11T10:10:13.329Z,15.3
2018-05-11T10:11:14.067Z,14.4
2018-05-11T10:12:14.798Z,14.5
2018-05-11T10:13:15.643Z,15.3
2018-05-11T10:14:16.373Z,13.9
2018-05-11T10:15:17.106Z,14.8
2018-05-11T10:16:17.834Z,13.7
2018-05-11T10:17:18.570Z,14.2
2018-05-11T10:18:19.302Z,12.8
2018-05-11T10:19:20.048Z,13.8
2018-05-11T10:20:20.782Z,12.9
2018-05-11T10:21:21.519Z,13.5
2018-05-11T10:22:22.249Z,12.4
2018-05-11T10:23:22.985Z,12.4
2018-05-11T10:24:23.817Z,11.9
2018-05-11T10:25:24.550Z,10.7
2018-05-11T10:26:25.277Z,11.6
2018-05-11T10:27:26.012Z,11.2
2018-05-11T10:28:26.740Z,10.6
2018-05-11T10:29:27.471Z,11.5
2018-05-11T10:30:28.199Z,12.0
2018-05-11T10:31:30.136Z,12.3
2018-05-11T10:32:30.859Z,12.5
2018-05-11T10:33:31.599Z,12.2
2018-05-11T10:34:32.333Z,13.3
2018-05-11T10:35:33.065Z,12.4
2018-05-11T10:36:33.798Z,12.2
2018-05-11T10:37:34.528Z,12.1
2018-05-11T10:38:35.269Z,13.2
2018-05-11T10:39:36.070Z,13.4
2018-05-11T10:40:36.998Z,12.4
2018-05-11T10:41:37.723Z,11.6
2018-05-11T10:42:38.449Z,13.2
2018-05-11T10:43:39.193Z,11.9
2018-05-11T10:44:39.943Z,12.7
2018-05-11T10:45:41.017Z,13.4
2018-05-11T10:46:41.745Z,12.7
2018-05-11T10:47:42.486Z,12.9
2018-05-11T10:48:43.317Z,12.6
2018-05-11T10:49:43.946Z,14.0
2018-05-11T10:50:45.133Z,13.2
2018-05-11T10:51:45.874Z,12.8
2018-05-11T10:52:46.610Z,13.0
2018-05-11T10:53:47.368Z,13.4
2018-05-11T10:54:48.117Z,13.2
2018-05-11T10:55:48.908Z,12.4
2018-05-11T10:56:49.695Z,13.6
2018-05-11T10:57:50.416Z,13.6
2018-05-11T10:58:51.146Z,12.9
2018-05-11T10:59:51.891Z,12.2
2018-05-11T11:00:52.726Z,12.7
2018-05-11T11:01:53.448Z,12.4
2018-05-11T11:02:54.187Z,13.3
2018-05-11T11:03:54.931Z,12.7
2018-05-11T11:04:55.911Z,13.8
2018-05-11T11:05:57.032Z,13.9
2018-05-11T11:06:57.746Z,13.9
2018-05-11T11:07:58.482Z,13.3
2018-05-11T11:08:59.214Z,12.6
2018-05-11T11:09:59.945Z,13.2
2018-05-11T11:11:00.738Z,13.1
2018-05-11T11:12:01.680Z,12.6
2018-05-11T11:13:03.030Z,13.2
2018-05-11T11:14:04.013Z,13.7
2018-05-11T11:15:05.414Z,13.2
2018-05-11T11:16:07.212Z,13.3
2018-05-11T11:17:08.431Z,12.9
2018-05-11T11:18:09.579Z,13.9
2018-05-11T11:19:10.309Z,12.6
2018-05-11T11:20:11.886Z,14.1
2018-05-11T11:21:12.886Z,12.5
2018-05-11T11:22:13.632Z,13.7
2018-05-11T11:23:14.378Z,12.7
2018-05-11T11:24:15.109Z,13.2
2018-05-11T11:25:16.253Z,13.0
2018-05-11T11:26:17.000Z,12.2
2018-05-11T11:27:17.724Z,13.0
2018-05-11T11:28:18.453Z,12.1
2018-05-11T11:29:19.185Z,13.7
2018-05-11T11:30:19.911Z,13.7
2018-05-11T11:31:20.652Z,13.3
2018-05-11T11:32:21.386Z,12.6
2018-05-11T11:33:22.361Z,13.3
2018-05-11T11:34:23.203Z,12.9
2018-05-11T11:35:24.193Z,13.3
2018-05-11T11:36:25.316Z,13.5
2018-05-11T11:37:26.092Z,13.1
2018-05-11T11:38:26.855Z,13.2
2018-05-11T11:39:27.845Z,13.2
2018-05-11T11:40:28.591Z,13.3
2018-05-11T11:41:29.368Z,13.4
2018-05-11T11:42:30.104Z,12.2
2018-05-11T11:43:30.842Z,13.0
2018-05-11T11:44:31.593Z,12.5
2018-05-11T11:45:32.319Z,12.9
2018-05-11T11:46:33.342Z,12.6
2018-05-11T11:47:34.412Z,11.7
2018-05-11T11:48:35.077Z,12.8
2018-05-11T11:49:35.798Z,11.5
2018-05-11T11:50:36.541Z,12.1
2018-05-11T11:51:37.264Z,11.5
2018-05-11T11:52:38.420Z,12.8
2018-05-11T11:53:39.158Z,12.4
2018-05-11T11:54:39.899Z,12.2
2018-05-11T11:55:40.655Z,11.5
2018-05-11T11:56:41.379Z,11.6
2018-05-11T11:57:42.357Z,11.0
2018-05-11T11:58:43.347Z,10.9
2018-05-11T11:59:44.089Z,11.7
2018-05-11T12:00:45.078Z,10.9
2018-05-11T12:01:45.801Z,10.7
2018-05-11T12:02:46.554Z,11.6
2018-05-11T12:03:47.288Z,10.4
2018-05-11T12:04:48.021Z,12.0
2018-05-11T12:05:49.005Z,10.5
2018-05-11T12:06:49.734Z,11.1
2018-05-11T12:07:50.474Z,12.0
2018-05-11T12:08:51.296Z,11.6
2018-05-11T12:09:52.004Z,10.9
2018-05-11T12:10:52.753Z,11.4
2018-05-11T12:11:53.488Z,9.9
2018-05-11T12:12:54.306Z,9.5
2018-05-11T12:13:55.042Z,10.8
2018-05-11T12:14:55.809Z,10.1
2018-05-11T12:15:56.546Z,10.0
2018-05-11T12:16:57.270Z,10.6
2018-05-11T12:17:58.001Z,10.3
2018-05-11T12:18:58.729Z,9.3
2018-05-11T12:19:59.479Z,10.1
2018-05-11T12:21:00.220Z,10.1
2018-05-11T12:22:01.209Z,9.7
2018-05-11T12:23:02.274Z,9.5
2018-05-11T12:24:03.184Z,9.6
2018-05-11T12:25:03.904Z,8.6
2018-05-11T12:26:04.887Z,9.4
2018-05-11T12:27:05.625Z,9.0
2018-05-11T12:28:06.380Z,8.6
2018-05-11T12:29:07.104Z,9.0
2018-05-11T12:30:07.856Z,8.6
2018-05-11T12:31:08.666Z,11.1
2018-05-11T12:32:09.390Z,15.4
2018-05-11T12:33:10.525Z,8.4
2018-05-11T12:34:11.243Z,7.4
2018-05-11T12:35:12.025Z,8.5
2018-05-11T12:36:12.752Z,8.6
2018-05-11T12:37:13.517Z,8.3
2018-05-11T12:38:14.254Z,8.7
2018-05-11T12:39:14.980Z,8.3
2018-05-11T12:40:15.705Z,8.4
2018-05-11T12:41:17.015Z,8.9
2018-05-11T12:42:17.742Z,10.6
2018-05-11T12:43:18.476Z,9.6
2018-05-11T12:44:19.216Z,10.6
2018-05-11T12:45:19.939Z,11.0
2018-05-11T12:46:20.813Z,9.6
2018-05-11T12:47:21.967Z,9.8
2018-05-11T12:48:22.959Z,9.5
2018-05-11T12:49:23.684Z,9.7
2018-05-11T12:50:25.058Z,9.5
2018-05-11T12:51:25.821Z,10.1
2018-05-11T12:52:26.575Z,9.5
2018-05-11T12:53:27.387Z,10.5
2018-05-11T12:54:28.139Z,10.9
2018-05-11T12:55:28.860Z,11.0
2018-05-11T12:56:29.641Z,10.3
2018-05-11T12:57:30.363Z,9.8
2018-05-11T12:58:31.109Z,9.9
2018-05-11T12:59:31.838Z,11.4
2018-05-11T13:00:32.585Z,10.6
2018-05-11T13:01:33.343Z,10.8
2018-05-11T13:02:34.094Z,9.8
2018-05-11T13:03:34.830Z,12.5
2018-05-11T13:04:35.573Z,10.7
2018-05-11T13:05:36.302Z,9.9
2018-05-11T13:06:37.061Z,10.3
2018-05-11T13:07:37.788Z,10.8
2018-05-11T13:08:38.874Z,10.6
2018-05-11T13:09:39.876Z,10.8
2018-05-11T13:10:40.605Z,11.3
2018-05-11T13:11:41.928Z,10.5
2018-05-11T13:12:42.649Z,9.9
2018-05-11T13:13:43.395Z,10.0
2018-05-11T13:14:44.409Z,9.9
2018-05-11T13:15:45.141Z,10.8
2018-05-11T13:16:46.131Z,10.9
2018-05-11T13:17:46.885Z,9.9
2018-05-11T13:18:47.982Z,9.6
2018-05-11T13:19:49.143Z,9.7
2018-05-11T13:20:49.920Z,10.2
2018-05-11T13:21:50.994Z,9.5
2018-05-11T13:22:51.736Z,10.8
2018-05-11T13:23:52.456Z,9.8
2018-05-11T13:24:53.201Z,10.0
2018-05-11T13:25:53.926Z,9.4
2018-05-11T13:26:54.670Z,9.7
2018-05-11T13:27:55.408Z,9.6
2018-05-11T13:28:56.405Z,10.1
2018-05-11T13:29:57.131Z,9.5
2018-05-11T13:30:58.114Z,9.2
2018-05-11T13:31:58.852Z,9.2
2018-05-11T13:32:59.895Z,10.0